createdAt,value
2018-03-15T00:00:37.427Z,25.90
2018-03-15T00:03:11.554Z,27.27
2018-03-15T00:05:40.719Z,26.35
2018-03-15T00:08:09.540Z,24.17
2018-03-15T00:10:38.717Z,22.87
2018-03-15T00:13:07.852Z,23.55
2018-03-15T00:15:38.508Z,25.73
2018-03-15T00:18:09.061Z,23.06
2018-03-15T00:20:39.430Z,24.82
2018-03-15T00:23:10.041Z,24.65
2018-03-15T00:25:40.827Z,29.83
2018-03-15T00:28:11.772Z,29.65
2018-03-15T00:30:43.108Z,34.02
2018-03-15T00:33:13.732Z,33.50
2018-03-15T00:35:45.401Z,31.46
2018-03-15T00:38:15.973Z,36.30
2018-03-15T00:40:46.358Z,31.96
2018-03-15T00:43:16.993Z,32.47
2018-03-15T00:45:47.821Z,33.30
2018-03-15T00:48:19.368Z,32.88
2018-03-15T00:50:50.033Z,32.75
2018-03-15T00:53:20.698Z,31.60
2018-03-15T00:55:52.028Z,34.18
2018-03-15T00:58:22.724Z,28.00
2018-03-15T01:00:54.432Z,28.76
2018-03-15T01:03:25.048Z,29.10
2018-03-15T01:05:55.382Z,32.56
2018-03-15T01:08:26.343Z,34.90
2018-03-15T01:10:57.012Z,38.13
2018-03-15T01:13:27.340Z,37.24
2018-03-15T01:15:58.005Z,39.17
2018-03-15T01:18:28.761Z,43.85
2018-03-15T01:21:00.158Z,47.30
2018-03-15T01:23:30.726Z,43.90
2018-03-15T01:26:02.095Z,42.00
2018-03-15T01:28:32.665Z,43.28
2018-03-15T01:31:04.109Z,48.26
2018-03-15T01:33:34.668Z,49.55
2018-03-15T01:36:06.071Z,51.48
2018-03-15T01:38:36.948Z,50.67
2018-03-15T01:41:07.747Z,53.58
2018-03-15T01:43:39.031Z,51.08
2018-03-15T01:46:09.715Z,45.17
2018-03-15T01:48:40.970Z,38.06
2018-03-15T01:51:11.733Z,36.17
2018-03-15T01:53:43.714Z,34.44
2018-03-15T01:56:14.485Z,33.75
2018-03-15T01:58:45.008Z,39.50
2018-03-15T02:01:15.866Z,37.63
2018-03-15T02:03:46.730Z,38.08
2018-03-15T02:06:18.224Z,36.82
2018-03-15T02:08:48.838Z,36.28
2018-03-15T02:11:20.236Z,38.88
2018-03-15T02:13:50.841Z,39.50
2018-03-15T02:16:21.838Z,40.40
2018-03-15T02:18:52.300Z,44.22
2018-03-15T02:21:22.951Z,44.50
2018-03-15T02:23:53.752Z,42.28
2018-03-15T02:26:25.201Z,39.00
2018-03-15T02:28:55.802Z,37.15
2018-03-15T02:31:26.460Z,38.75
2018-03-15T02:33:57.108Z,39.46
2018-03-15T02:36:27.837Z,34.22
2018-03-15T02:38:58.448Z,40.03
2018-03-15T02:41:29.139Z,39.83
2018-03-15T02:43:59.878Z,37.88
2018-03-15T02:46:30.914Z,41.53
2018-03-15T02:49:01.712Z,43.53
2018-03-15T02:51:33.109Z,40.46
2018-03-15T02:54:03.718Z,46.20
2018-03-15T02:56:35.174Z,44.72
2018-03-15T02:59:05.812Z,49.40
2018-03-15T03:01:36.369Z,44.13
2018-03-15T03:04:06.954Z,42.90
2018-03-15T03:06:37.799Z,44.60
2018-03-15T03:09:08.733Z,47.75
2018-03-15T03:11:40.092Z,41.96
2018-03-15T03:14:10.302Z,45.48
2018-03-15T03:16:41.075Z,43.47
2018-03-15T03:19:11.740Z,44.22
2018-03-15T03:21:43.221Z,48.80
2018-03-15T03:24:13.753Z,45.95
2018-03-15T03:26:44.310Z,47.40
2018-03-15T03:29:14.862Z,48.03
2018-03-15T03:31:45.522Z,44.97
2018-03-15T03:34:16.081Z,44.04
2018-03-15T03:36:46.865Z,42.08
2018-03-15T03:39:17.779Z,44.65
2018-03-15T03:41:48.389Z,48.90
2018-03-15T03:44:19.159Z,46.97
2018-03-15T03:46:50.519Z,43.93
2018-03-15T03:49:21.171Z,41.75
2018-03-15T03:51:51.839Z,52.92
2018-03-15T03:54:22.362Z,48.54
2018-03-15T03:56:53.024Z,49.88
2018-03-15T03:59:23.763Z,57.53
2018-03-15T04:01:55.138Z,49.66
2018-03-15T04:04:25.782Z,49.35
2018-03-15T04:06:57.114Z,43.88
2018-03-15T04:09:27.773Z,43.70
2018-03-15T04:11:57.743Z,39.05
2018-03-15T04:14:28.368Z,44.30
2018-03-15T04:16:59.312Z,43.67
2018-03-15T04:19:30.151Z,54.75
2018-03-15T04:22:01.074Z,62.42
2018-03-15T04:24:32.303Z,68.66
2018-03-15T04:27:03.228Z,53.72
2018-03-15T04:29:34.202Z,50.05
2018-03-15T04:32:05.702Z,50.70
2018-03-15T04:34:36.290Z,48.15
2018-03-15T04:37:07.133Z,42.80
2018-03-15T04:39:38.038Z,40.60
2018-03-15T04:42:09.389Z,43.78
2018-03-15T04:44:40.370Z,42.62
2018-03-15T04:47:11.412Z,37.80
2018-03-15T04:49:42.449Z,38.58
2018-03-15T04:52:13.369Z,38.50
2018-03-15T04:54:44.259Z,38.72
2018-03-15T04:57:15.232Z,41.60
2018-03-15T04:59:46.100Z,44.53
2018-03-15T05:02:17.789Z,44.06
2018-03-15T05:04:48.726Z,44.15
2018-03-15T05:07:20.115Z,46.84
2018-03-15T05:09:50.946Z,42.47
2018-03-15T05:12:22.256Z,39.56
2018-03-15T05:14:52.888Z,46.28
2018-03-15T05:17:23.752Z,46.35
2018-03-15T05:19:55.024Z,48.14
2018-03-15T05:22:25.807Z,44.42
2018-03-15T05:24:56.750Z,49.63
2018-03-15T05:27:28.210Z,53.40
2018-03-15T05:29:58.805Z,46.40
2018-03-15T05:32:37.643Z,42.76
2018-03-15T05:35:07.067Z,46.90
2018-03-15T05:37:36.320Z,44.22
2018-03-15T05:40:05.514Z,42.13
2018-03-15T05:42:34.610Z,43.85
2018-03-15T05:45:04.471Z,46.95
2018-03-15T05:47:34.367Z,50.05
2018-03-15T05:50:04.724Z,46.58
2018-03-15T05:52:36.041Z,48.04
2018-03-15T05:55:06.801Z,43.70
2018-03-15T05:57:37.762Z,50.47
2018-03-15T06:00:08.776Z,70.47
2018-03-15T06:02:40.181Z,142.62
2018-03-15T06:05:10.870Z,101.22
2018-03-15T06:07:41.717Z,73.15
2018-03-15T06:10:13.189Z,55.62
2018-03-15T06:12:43.744Z,49.42
2018-03-15T06:15:14.767Z,47.50
2018-03-15T06:17:45.693Z,49.78
2018-03-15T06:20:16.736Z,93.95
2018-03-15T06:22:47.337Z,123.22
2018-03-15T06:25:18.048Z,88.87
2018-03-15T06:27:48.784Z,63.28
2018-03-15T06:30:19.776Z,57.83
2018-03-15T06:32:51.004Z,51.04
2018-03-15T06:35:21.752Z,50.22
2018-03-15T06:37:52.230Z,52.36
2018-03-15T06:40:22.884Z,54.15
2018-03-15T06:42:53.798Z,53.15
2018-03-15T06:45:24.704Z,48.85
2018-03-15T06:47:55.313Z,55.47
2018-03-15T06:50:25.894Z,55.60
2018-03-15T06:52:56.786Z,52.30
2018-03-15T06:55:27.688Z,50.97
2018-03-15T06:57:59.189Z,66.38
2018-03-15T07:00:29.714Z,59.15
2018-03-15T07:03:00.336Z,54.60
2018-03-15T07:05:30.908Z,59.28
2018-03-15T07:08:01.749Z,61.88
2018-03-15T07:10:33.068Z,60.74
2018-03-15T07:13:03.882Z,58.25
2018-03-15T07:15:34.730Z,65.70
2018-03-15T07:18:05.728Z,62.15
2018-03-15T07:20:36.654Z,64.50
2018-03-15T07:23:07.293Z,67.12
2018-03-15T07:25:37.845Z,67.57
2018-03-15T07:28:08.874Z,65.45
2018-03-15T07:30:39.790Z,62.65
2018-03-15T07:33:10.764Z,65.25
2018-03-15T07:35:41.260Z,69.97
2018-03-15T07:38:12.007Z,71.50
2018-03-15T07:40:42.717Z,61.22
2018-03-15T07:43:14.125Z,64.40
2018-03-15T07:45:44.768Z,62.67
2018-03-15T07:48:15.777Z,72.00
2018-03-15T07:50:46.309Z,66.53
2018-03-15T07:53:16.946Z,66.35
2018-03-15T07:55:46.685Z,64.03
2018-03-15T07:58:17.800Z,67.12
2018-03-15T08:00:48.672Z,72.87
2018-03-15T08:03:20.110Z,64.44
2018-03-15T08:05:50.672Z,68.37
2018-03-15T08:08:22.055Z,61.22
2018-03-15T08:10:52.392Z,74.70
2018-03-15T08:13:22.986Z,70.85
2018-03-15T08:15:54.222Z,64.46
2018-03-15T08:18:24.845Z,63.20
2018-03-15T08:20:55.333Z,63.13
2018-03-15T08:23:27.089Z,67.64
2018-03-15T08:25:57.700Z,64.28
2018-03-15T08:28:29.055Z,70.44
2018-03-15T08:30:59.664Z,71.10
2018-03-15T08:33:31.252Z,65.18
2018-03-15T08:36:02.085Z,67.68
2018-03-15T08:38:33.058Z,65.43
2018-03-15T08:41:03.788Z,63.87
2018-03-15T08:43:35.295Z,59.74
2018-03-15T08:46:05.853Z,67.68
2018-03-15T08:48:36.748Z,72.28
2018-03-15T08:51:08.024Z,69.82
2018-03-15T08:53:38.732Z,66.12
2018-03-15T08:56:09.667Z,65.65
2018-03-15T08:58:41.102Z,69.24
2018-03-15T09:01:11.352Z,69.36
2018-03-15T09:03:42.000Z,64.65
2018-03-15T09:06:12.822Z,65.85
2018-03-15T09:08:43.879Z,70.70
2018-03-15T09:11:14.764Z,68.78
2018-03-15T09:13:46.097Z,70.26
2018-03-15T09:16:16.309Z,65.82
2018-03-15T09:18:46.912Z,68.15
2018-03-15T09:21:17.705Z,68.30
2018-03-15T09:23:49.117Z,69.46
2018-03-15T09:26:20.211Z,66.43
2018-03-15T09:28:50.912Z,71.07
2018-03-15T09:31:21.437Z,73.80
2018-03-15T09:33:52.125Z,68.25
2018-03-15T09:36:22.888Z,73.78
2018-03-15T09:38:53.862Z,68.18
2018-03-15T09:41:24.655Z,71.72
2018-03-15T09:43:55.252Z,74.20
2018-03-15T09:46:25.826Z,66.18
2018-03-15T09:48:56.884Z,64.35
2018-03-15T09:51:27.716Z,64.80
2018-03-15T09:53:59.200Z,65.58
2018-03-15T09:56:30.076Z,69.05
2018-03-15T09:59:00.380Z,64.00
2018-03-15T10:01:30.925Z,67.65
2018-03-15T10:04:01.420Z,58.74
2018-03-15T10:06:32.013Z,59.03
2018-03-15T10:09:02.922Z,58.60
2018-03-15T10:11:34.637Z,60.86
2018-03-15T10:14:05.232Z,65.10
2018-03-15T10:16:35.812Z,60.70
2018-03-15T10:19:07.560Z,59.66
2018-03-15T10:21:38.068Z,61.17
2018-03-15T10:24:08.788Z,65.65
2018-03-15T10:26:39.764Z,73.50
2018-03-15T10:29:11.406Z,83.54
2018-03-15T10:31:41.836Z,82.36
2018-03-15T10:34:12.351Z,81.28
2018-03-15T10:36:43.080Z,86.32
2018-03-15T10:39:13.260Z,84.12
2018-03-15T10:41:43.842Z,78.68
2018-03-15T10:44:14.756Z,85.57
2018-03-15T10:46:46.061Z,87.66
2018-03-15T10:49:16.853Z,107.70
2018-03-15T10:51:47.431Z,99.52
2018-03-15T10:54:18.125Z,86.85
2018-03-15T10:56:48.886Z,80.55
2018-03-15T10:59:19.784Z,95.53
2018-03-15T11:01:50.549Z,92.00
2018-03-15T11:07:30.544Z,81.75
2018-03-15T11:09:59.672Z,79.00
2018-03-15T11:12:28.387Z,66.73
2018-03-15T11:14:57.350Z,73.07
2018-03-15T11:17:26.367Z,72.93
2018-03-15T11:19:55.396Z,65.23
2018-03-15T11:22:24.288Z,79.93
2018-03-15T11:24:53.403Z,69.07
2018-03-15T11:27:22.313Z,80.90
2018-03-15T11:29:51.321Z,65.83
2018-03-15T11:32:20.508Z,64.53
2018-03-15T11:34:49.552Z,62.13
2018-03-15T11:37:18.550Z,69.37
2018-03-15T11:39:47.610Z,65.83
2018-03-15T11:42:20.745Z,66.32
2018-03-15T11:44:49.933Z,65.22
2018-03-15T11:47:18.817Z,58.30
2018-03-15T11:49:48.210Z,51.37
2018-03-15T11:52:17.453Z,52.80
2018-03-15T11:54:47.089Z,50.38
2018-03-15T11:57:16.212Z,51.53
2018-03-15T11:59:45.977Z,51.00
2018-03-15T12:02:15.144Z,46.86
2018-03-15T12:04:44.469Z,45.33
2018-03-15T12:07:14.368Z,44.33
2018-03-15T12:09:44.949Z,47.95
2018-03-15T12:12:15.803Z,45.95
2018-03-15T12:14:46.756Z,47.72
2018-03-15T12:17:17.788Z,49.88
2018-03-15T12:19:48.769Z,43.10
2018-03-15T12:22:20.119Z,51.90
2018-03-15T12:24:50.723Z,47.75
2018-03-15T12:27:21.749Z,52.45
2018-03-15T12:29:53.088Z,63.68
2018-03-15T12:32:23.901Z,56.37
2018-03-15T12:34:54.749Z,57.30
2018-03-15T12:37:25.236Z,58.35
2018-03-15T12:39:55.730Z,66.87
2018-03-15T12:42:27.124Z,62.54
2018-03-15T12:44:57.747Z,65.15
2018-03-15T12:47:29.114Z,63.76
2018-03-15T12:49:59.395Z,61.68
2018-03-15T12:52:30.074Z,57.33
2018-03-15T12:55:00.709Z,52.88
2018-03-15T12:57:31.368Z,53.33
2018-03-15T13:00:01.919Z,52.65
2018-03-15T13:02:32.341Z,52.80
2018-03-15T13:05:02.898Z,51.70
2018-03-15T13:07:33.745Z,48.15
2018-03-15T13:10:04.796Z,51.45
2018-03-15T13:12:35.740Z,49.10
2018-03-15T13:15:06.735Z,48.60
2018-03-15T13:17:37.370Z,46.97
2018-03-15T13:20:07.993Z,46.00
2018-03-15T13:22:38.821Z,45.35
2018-03-15T13:25:09.661Z,44.05
2018-03-15T13:27:41.116Z,45.32
2018-03-15T13:30:11.367Z,50.40
2018-03-15T13:32:42.048Z,60.85
2018-03-15T13:35:12.692Z,51.78
2018-03-15T13:37:44.040Z,61.44
2018-03-15T13:40:14.693Z,49.17
2018-03-15T13:42:45.240Z,54.83
2018-03-15T13:45:15.860Z,48.08
2018-03-15T13:47:46.415Z,50.76
2018-03-15T13:50:17.047Z,49.03
2018-03-15T13:52:47.773Z,46.78
2018-03-15T13:55:18.632Z,53.45
2018-03-15T13:57:50.014Z,52.04
2018-03-15T14:00:20.732Z,54.25
2018-03-15T14:02:52.121Z,56.98
2018-03-15T14:05:22.745Z,49.85
2018-03-15T14:07:54.436Z,46.46
2018-03-15T14:10:25.716Z,42.64
2018-03-15T14:12:56.314Z,48.20
2018-03-15T14:15:26.058Z,52.30
2018-03-15T14:17:56.732Z,52.62
2018-03-15T14:20:27.657Z,61.22
2018-03-15T14:22:58.088Z,57.83
2018-03-15T14:25:28.749Z,49.38
2018-03-15T14:28:00.055Z,53.80
2018-03-15T14:30:30.733Z,57.55
2018-03-15T14:33:02.090Z,45.62
2018-03-15T14:35:32.765Z,48.38
2018-03-15T14:38:04.124Z,45.46
2018-03-15T14:40:34.784Z,47.97
2018-03-15T14:43:05.800Z,43.63
2018-03-15T14:45:36.774Z,54.97
2018-03-15T14:48:07.736Z,51.85
2018-03-15T14:50:38.224Z,51.05
2018-03-15T14:53:08.880Z,65.07
2018-03-15T14:55:39.758Z,58.78
2018-03-15T14:58:11.376Z,55.26
2018-03-15T15:00:41.965Z,59.30
2018-03-15T15:03:12.789Z,66.45
2018-03-15T15:05:43.680Z,60.05
2018-03-15T15:08:15.080Z,59.70
2018-03-15T15:10:45.376Z,63.46
2018-03-15T15:13:16.013Z,69.53
2018-03-15T15:15:46.816Z,65.00
2018-03-15T15:18:18.155Z,65.48
2018-03-15T15:20:48.784Z,61.45
2018-03-15T15:23:20.497Z,62.97
2018-03-15T15:25:51.120Z,53.44
2018-03-15T15:28:21.860Z,56.25
2018-03-15T15:30:52.694Z,59.80
2018-03-15T15:33:24.119Z,63.62
2018-03-15T15:35:54.732Z,54.78
2018-03-15T15:38:26.145Z,59.00
2018-03-15T15:40:56.680Z,50.83
2018-03-15T15:43:29.027Z,56.25
2018-03-15T15:48:39.430Z,53.70
2018-03-15T15:51:08.551Z,54.67
2018-03-15T15:53:37.660Z,53.63
2018-03-15T15:56:07.154Z,52.60
2018-03-15T15:58:36.274Z,57.15
2018-03-15T16:01:05.391Z,57.17
2018-03-15T16:03:34.602Z,57.58
2018-03-15T16:06:04.320Z,57.40
2018-03-15T16:08:35.127Z,61.47
2018-03-15T16:11:04.998Z,72.78
2018-03-15T16:13:35.856Z,61.25
2018-03-15T16:16:06.648Z,66.90
2018-03-15T16:18:38.068Z,63.02
2018-03-15T16:21:08.698Z,65.18
2018-03-15T16:23:40.100Z,64.76
2018-03-15T16:26:10.705Z,69.20
2018-03-15T16:28:42.098Z,70.44
2018-03-15T16:31:12.267Z,68.57
2018-03-15T16:33:42.902Z,66.75
2018-03-15T16:36:13.820Z,58.50
2018-03-15T16:38:45.204Z,64.14
2018-03-15T16:41:15.791Z,66.62
2018-03-15T16:43:47.158Z,65.24
2018-03-15T16:46:17.344Z,59.64
2018-03-15T16:48:47.969Z,61.28
2018-03-15T16:51:18.757Z,57.03
2018-03-15T16:53:49.745Z,60.60
2018-03-15T16:56:21.002Z,57.18
2018-03-15T16:58:51.849Z,62.65
2018-03-15T17:01:23.433Z,63.76
2018-03-15T17:03:54.758Z,67.72
2018-03-15T17:06:25.266Z,71.28
2018-03-15T17:08:55.841Z,77.35
2018-03-15T17:11:26.643Z,86.50
2018-03-15T17:13:57.235Z,71.02
2018-03-15T17:16:27.879Z,79.37
2018-03-15T17:18:58.384Z,77.07
2018-03-15T17:21:28.944Z,85.30
2018-03-15T17:23:59.840Z,73.30
2018-03-15T17:26:30.813Z,73.12
2018-03-15T17:29:01.988Z,69.47
2018-03-15T17:31:32.542Z,69.73
2018-03-15T17:34:03.243Z,66.20
2018-03-15T17:36:33.985Z,63.65
2018-03-15T17:39:04.320Z,70.50
2018-03-15T17:41:36.050Z,65.90
2018-03-15T17:44:06.865Z,66.32
2018-03-15T17:46:37.707Z,68.78
2018-03-15T17:49:09.273Z,62.34
2018-03-15T17:51:39.942Z,70.28
2018-03-15T17:54:10.647Z,72.10
2018-03-15T17:56:41.191Z,76.93
2018-03-15T17:59:11.875Z,67.20
2018-03-15T18:01:42.997Z,66.30
2018-03-15T18:04:14.050Z,69.18
2018-03-15T18:06:44.877Z,71.07
2018-03-15T18:09:15.474Z,66.96
2018-03-15T18:11:46.165Z,66.75
2018-03-15T18:14:17.016Z,63.05
2018-03-15T18:16:47.741Z,63.87
2018-03-15T18:19:19.111Z,66.78
2018-03-15T18:21:50.348Z,68.47
2018-03-15T18:24:21.145Z,64.43
2018-03-15T18:26:51.656Z,62.48
2018-03-15T18:29:22.199Z,65.77
2018-03-15T18:31:52.849Z,68.28
2018-03-15T18:34:23.549Z,63.08
2018-03-15T18:36:53.596Z,63.35
2018-03-15T18:39:24.359Z,70.70
2018-03-15T18:41:55.321Z,65.22
2018-03-15T18:44:26.374Z,70.57
2018-03-15T18:46:57.045Z,66.30
2018-03-15T18:49:28.043Z,63.30
2018-03-15T18:51:59.068Z,66.68
2018-03-15T18:54:29.637Z,71.52
2018-03-15T18:57:00.341Z,71.85
2018-03-15T18:59:31.088Z,71.37
2018-03-15T19:02:01.901Z,69.87
2018-03-15T19:04:33.116Z,61.72
2018-03-15T19:07:03.480Z,64.66
2018-03-15T19:09:34.573Z,65.05
2018-03-15T19:12:05.207Z,63.28
2018-03-15T19:14:35.969Z,68.30
2018-03-15T19:17:07.191Z,62.55
2018-03-15T19:19:37.881Z,66.07
2018-03-15T19:22:08.466Z,66.45
2018-03-15T19:24:39.236Z,63.60
2018-03-15T19:27:10.200Z,67.03
2018-03-15T19:29:41.069Z,66.18
2018-03-15T19:32:12.784Z,70.56
2018-03-15T19:34:43.445Z,76.87
2018-03-15T19:37:14.221Z,65.97
2018-03-15T19:39:45.070Z,63.53
2018-03-15T19:42:15.847Z,65.72
2018-03-15T19:44:46.984Z,63.00
2018-03-15T19:47:17.850Z,63.25
2018-03-15T19:49:50.620Z,58.68
2018-03-15T19:52:21.504Z,60.83
2018-03-15T19:54:58.343Z,57.25
2018-03-15T19:57:27.589Z,57.67
2018-03-15T19:59:56.908Z,57.50
2018-03-15T20:02:26.253Z,61.85
2018-03-15T20:04:55.581Z,59.27
2018-03-15T20:07:26.153Z,59.20
2018-03-15T20:09:56.825Z,59.00
2018-03-15T20:12:27.484Z,60.35
2018-03-15T20:14:58.156Z,62.64
2018-03-15T20:17:28.935Z,61.00
2018-03-15T20:19:59.795Z,61.10
2018-03-15T20:22:36.194Z,58.78
2018-03-15T20:25:05.442Z,58.25
2018-03-15T20:27:40.350Z,58.65
2018-03-15T20:30:09.583Z,56.15
2018-03-15T20:32:44.541Z,55.70
2018-03-15T20:35:13.880Z,60.03
2018-03-15T20:37:43.188Z,70.12
2018-03-15T20:40:17.777Z,69.75
2018-03-15T20:42:47.116Z,64.93
2018-03-15T20:45:21.767Z,61.90
2018-03-15T20:47:56.523Z,65.80
2018-03-15T20:50:25.509Z,60.37
2018-03-15T20:52:54.865Z,64.07
2018-03-15T20:55:24.246Z,66.40
2018-03-15T20:57:53.548Z,64.68
2018-03-15T21:00:22.879Z,62.85
2018-03-15T21:02:52.119Z,91.03
2018-03-15T21:05:21.417Z,90.43
2018-03-15T21:07:50.695Z,74.97
2018-03-15T21:10:20.234Z,102.57
2018-03-15T21:12:49.506Z,71.78
2018-03-15T21:15:19.429Z,90.22
2018-03-15T21:17:50.216Z,95.43
2018-03-15T21:20:21.090Z,72.55
2018-03-15T21:22:53.322Z,80.26
2018-03-15T21:25:23.200Z,71.72
2018-03-15T21:27:53.903Z,64.30
2018-03-15T21:30:24.416Z,61.83
2018-03-15T21:32:55.306Z,56.05
2018-03-15T21:35:26.047Z,56.42
2018-03-15T21:37:56.846Z,54.22
2018-03-15T21:40:27.821Z,46.80
2018-03-15T21:42:58.822Z,52.88
2018-03-15T21:45:29.838Z,53.60
2018-03-15T21:48:00.759Z,53.17
2018-03-15T21:50:32.292Z,52.40
2018-03-15T21:53:03.036Z,51.03
2018-03-15T21:55:33.796Z,49.32
2018-03-15T21:58:07.727Z,53.22
2018-03-15T22:00:36.900Z,51.28
2018-03-15T22:03:06.179Z,59.00
2018-03-15T22:05:35.364Z,45.60
2018-03-15T22:08:07.167Z,51.36
2018-03-15T22:10:37.970Z,53.25
2018-03-15T22:13:08.836Z,50.54
2018-03-15T22:15:39.560Z,50.28
2018-03-15T22:18:10.288Z,46.56
2018-03-15T22:20:41.913Z,47.96
2018-03-15T22:23:12.573Z,51.96
2018-03-15T22:25:43.348Z,45.98
2018-03-15T22:28:13.133Z,49.10
2018-03-15T22:30:42.781Z,51.45
2018-03-15T22:33:14.504Z,53.20
2018-03-15T22:35:45.408Z,49.17
2018-03-15T22:38:17.206Z,52.84
2018-03-15T22:40:47.471Z,52.72
2018-03-15T22:43:19.112Z,52.00
2018-03-15T22:45:49.826Z,52.78
2018-03-15T22:48:20.910Z,55.08
2018-03-15T22:50:52.607Z,58.84
2018-03-15T22:53:22.218Z,54.64
2018-03-15T22:55:51.701Z,49.00
2018-03-15T22:58:22.092Z,56.67
2018-03-15T23:00:52.906Z,57.03
2018-03-15T23:03:24.427Z,55.28
2018-03-15T23:05:55.436Z,51.65
2018-03-15T23:08:26.368Z,55.67
2018-03-15T23:10:57.356Z,61.80
2018-03-15T23:13:28.361Z,56.05
2018-03-15T23:15:59.328Z,53.00
2018-03-15T23:18:30.260Z,53.97
2018-03-15T23:21:01.240Z,56.35
2018-03-15T23:23:32.167Z,59.00
2018-03-15T23:26:02.865Z,56.83
2018-03-15T23:28:34.352Z,55.36
2018-03-15T23:31:07.892Z,59.53
2018-03-15T23:33:38.232Z,55.93
2018-03-15T23:36:08.868Z,56.90
2018-03-15T23:38:42.240Z,57.65
2018-03-15T23:41:13.972Z,57.43
2018-03-15T23:43:44.848Z,57.17
2018-03-15T23:46:14.240Z,55.22
2018-03-15T23:48:43.521Z,56.78
2018-03-15T23:51:13.136Z,51.53
2018-03-15T23:53:42.912Z,60.22
2018-03-15T23:56:13.886Z,61.75
2018-03-15T23:58:45.842Z,55.34
